Kimbolton, Ohio
Current Conditions -  °F | °C
As of 10:53 AM on Monday 22 Dec 2014 (Local Time) from KZZV Reporting Station
Overcast Overcast  
Wind Chill: 30°   Ceiling: 6000
Heat Index: 34°   Visibility: 8mi
Dew Point: 29°   Wind: 5mph
Humidity: 82%   Direction: 110°ESE
Pressure: 30.06"   Gusts: NA
Location:  40.15°N, 81.57°W
Report Text: KZZV 221553Z AUTO 11004KT 8SM OVC060 01/M02 A3006 RMK AO2 SLP189 T00111017 $
Loading
Personal Weather Stations






























Interactive Weather Map New forecast layout! Learn more

10-Day Weather Forecast

Advertisements
Track Severe Weather on mobile